Time;durP1;ratioP1;P1;durP2;ratioP2;P2;SDS_P1;SDS_P2;PMS_P1;PMS_P2;Temp;Humidity;BMP_temperature;BMP_pressure;BME280_temperature;BME280_humidity;BME280_pressure;Samples;Min_cycle;Max_cycle;Signal;HPM_P1;HPM_P2
2021/08/03 00:02:09;;;;;;;2.15;1.20;;;;;;;22.33;52.44;101559.97;5104834;28;20041;-74
2021/08/03 00:04:41;;;;;;;1.42;0.90;;;;;;;22.34;52.24;101566.97;5123791;28;20023;-74
2021/08/03 00:07:11;;;;;;;1.05;0.73;;;;;;;22.29;52.44;101559.13;5103891;28;20030;-74
2021/08/03 00:09:39;;;;;;;1.65;1.00;;;;;;;22.31;52.50;101557.34;5103397;28;20024;-74
2021/08/03 00:12:10;;;;;;;1.10;0.77;;;;;;;22.33;52.30;101559.97;5103335;28;20481;-74
2021/08/03 00:14:42;;;;;;;1.45;0.90;;;;;;;22.29;52.41;101550.34;5121255;28;20031;-74
2021/08/03 00:17:12;;;;;;;3.90;1.05;;;;;;;22.30;52.37;101565.25;5102698;28;20427;-75
2021/08/03 00:19:38;;;;;;;1.35;0.70;;;;;;;22.28;52.54;101565.28;5120695;28;20027;-75
2021/08/03 00:22:04;;;;;;;2.65;1.00;;;;;;;22.28;52.28;101553.84;5120664;28;20080;-75
2021/08/03 00:24:30;;;;;;;1.75;1.38;;;;;;;22.28;52.46;101552.09;5085372;28;20431;-75
2021/08/03 00:26:55;;;;;;;1.17;0.80;;;;;;;22.28;52.14;101553.84;5102358;28;20031;-75
2021/08/03 00:29:21;;;;;;;1.70;1.00;;;;;;;22.31;52.30;101557.34;5085298;28;20034;-74
2021/08/03 00:31:49;;;;;;;1.27;0.93;;;;;;;22.29;52.59;101548.56;5085405;28;20027;-75
2021/08/03 00:34:15;;;;;;;2.40;0.95;;;;;;;22.31;52.58;101554.72;5102002;28;20024;-75
2021/08/03 00:36:41;;;;;;;1.35;1.02;;;;;;;22.28;52.38;101538.91;5085479;28;20023;-75
2021/08/03 00:39:06;;;;;;;1.48;1.13;;;;;;;22.29;52.35;101545.94;5085286;28;20028;-75
2021/08/03 00:41:42;;;;;;;1.30;0.98;;;;;;;22.28;52.51;101545.94;5102374;28;20022;-75
2021/08/03 00:44:07;;;;;;;2.10;1.38;;;;;;;22.26;52.49;101537.19;5120494;28;20477;-75
2021/08/03 00:46:35;;;;;;;1.83;1.10;;;;;;;22.29;52.45;101540.66;5085253;28;20027;-75
2021/08/03 00:49:00;;;;;;;1.17;0.90;;;;;;;22.25;52.40;101536.31;5085282;28;20068;-75
2021/08/03 00:51:26;;;;;;;1.50;0.70;;;;;;;22.27;52.38;101533.66;5120250;28;20477;-75
2021/08/03 00:53:51;;;;;;;1.42;0.82;;;;;;;22.27;52.28;101538.94;5120277;28;20070;-75
2021/08/03 00:56:17;;;;;;;1.00;0.80;;;;;;;22.25;52.54;101535.44;5102861;28;20539;-74
2021/08/03 00:58:43;;;;;;;1.35;0.80;;;;;;;22.29;52.60;101539.78;5121948;28;20043;-74
2021/08/03 01:01:08;;;;;;;1.13;0.90;;;;;;;22.26;52.39;101531.91;5122753;28;20480;-75
2021/08/03 01:03:33;;;;;;;1.20;0.80;;;;;;;22.28;52.39;101533.66;5120432;28;20032;-73
2021/08/03 01:06:12;;;;;;;1.75;1.30;;;;;;;22.27;52.53;101537.16;5120113;28;20024;-73
2021/08/03 01:09:02;;;;;;;1.63;1.08;;;;;;;22.27;52.47;101531.03;5098523;28;20029;-73
2021/08/03 01:11:44;;;;;;;1.40;1.10;;;;;;;22.27;52.35;101526.63;5116907;28;20081;-72
2021/08/03 01:14:41;;;;;;;1.88;0.77;;;;;;;22.28;52.44;101531.00;5116704;28;20084;-72
2021/08/03 01:17:30;;;;;;;1.65;1.00;;;;;;;22.25;52.62;101525.78;5097597;28;20035;-72
2021/08/03 01:19:58;;;;;;;1.75;0.98;;;;;;;22.27;52.34;101533.66;5116819;28;20102;-72
2021/08/03 01:22:42;;;;;;;1.23;0.82;;;;;;;22.26;52.53;101532.78;5116848;28;20069;-72
2021/08/03 01:25:19;;;;;;;1.38;1.00;;;;;;;22.27;52.39;101529.25;5116888;28;20027;-72
2021/08/03 01:28:10;;;;;;;2.05;1.20;;;;;;;22.23;52.61;101524.91;5098262;28;20042;-73
2021/08/03 01:30:37;;;;;;;1.45;1.02;;;;;;;22.27;52.39;101529.25;5098291;28;20027;-73
2021/08/03 01:33:05;;;;;;;1.38;1.00;;;;;;;22.23;52.37;101526.66;5116504;28;20152;-72
2021/08/03 01:35:30;;;;;;;1.38;1.00;;;;;;;22.27;52.39;101528.38;5098600;28;20040;-73
2021/08/03 01:38:00;;;;;;;1.27;0.90;;;;;;;22.25;52.34;101520.50;5098153;28;20351;-73
2021/08/03 01:40:27;;;;;;;1.33;0.98;;;;;;;22.25;52.41;101522.25;5116399;28;20373;-72
2021/08/03 01:42:53;;;;;;;1.10;1.00;;;;;;;22.25;52.72;101525.78;5116275;28;20024;-73
2021/08/03 01:45:18;;;;;;;1.70;1.10;;;;;;;22.24;52.42;101524.03;5081121;28;20042;-72
2021/08/03 01:47:44;;;;;;;0.95;0.85;;;;;;;22.24;52.48;101518.75;5097883;28;20028;-74
2021/08/03 01:50:11;;;;;;;1.88;1.35;;;;;;;22.22;52.35;101515.25;5097963;28;20042;-74
2021/08/03 01:52:38;;;;;;;1.50;1.25;;;;;;;22.24;52.42;101510.84;5098336;28;20027;-74
2021/08/03 01:55:05;;;;;;;1.08;0.73;;;;;;;22.18;52.34;101508.28;5097816;28;20058;-74
2021/08/03 01:57:32;;;;;;;1.40;1.30;;;;;;;22.22;52.43;101519.66;5080985;28;20031;-74
2021/08/03 02:00:00;;;;;;;1.45;0.90;;;;;;;22.22;52.42;101512.63;5097877;28;20074;-74
2021/08/03 02:02:25;;;;;;;1.13;0.98;;;;;;;22.23;52.37;101511.72;5116384;28;20024;-73
2021/08/03 02:04:52;;;;;;;1.58;1.08;;;;;;;22.20;52.43;101508.28;5116760;28;20480;-73
2021/08/03 02:07:21;;;;;;;2.20;1.00;;;;;;;22.21;52.59;101508.22;5081630;28;20134;-72
2021/08/03 02:09:47;;;;;;;2.55;1.25;;;;;;;22.22;52.21;101511.75;5116202;28;20055;-72
2021/08/03 02:12:13;;;;;;;1.45;0.85;;;;;;;22.20;52.49;101503.00;5116369;28;20023;-72
2021/08/03 02:14:45;;;;;;;1.88;0.85;;;;;;;22.20;52.45;101503.84;5097864;28;20080;-73
2021/08/03 02:17:22;;;;;;;0.82;0.70;;;;;;;22.23;52.38;101509.09;5116058;28;20112;-73
2021/08/03 02:19:48;;;;;;;1.67;1.00;;;;;;;22.23;52.49;101514.38;5114613;28;20054;-72
2021/08/03 02:22:14;;;;;;;1.20;1.00;;;;;;;22.23;52.42;101517.00;5115792;28;20023;-72
2021/08/03 02:24:40;;;;;;;1.30;0.82;;;;;;;22.19;52.42;101510.03;5097557;28;20023;-73
2021/08/03 02:27:06;;;;;;;1.70;1.05;;;;;;;22.22;52.51;101517.88;5097539;28;20050;-73
2021/08/03 02:29:33;;;;;;;1.17;0.77;;;;;;;22.18;52.42;101512.69;5097435;28;20059;-72
2021/08/03 02:32:28;;;;;;;1.05;0.80;;;;;;;22.22;52.58;101522.28;5115422;28;20031;-72
2021/08/03 02:34:58;;;;;;;1.95;1.08;;;;;;;22.22;52.50;101525.78;5093480;28;20080;-73
2021/08/03 02:37:30;;;;;;;1.27;1.00;;;;;;;22.21;52.43;101518.78;5116085;28;20023;-73
2021/08/03 02:39:56;;;;;;;1.60;1.00;;;;;;;22.20;52.47;101516.19;5115737;28;20019;-73
2021/08/03 02:42:22;;;;;;;1.13;0.80;;;;;;;22.22;52.37;101523.16;5080144;28;20152;-72
2021/08/03 02:44:53;;;;;;;1.23;1.00;;;;;;;22.18;52.38;101520.59;5097123;28;20034;-73
2021/08/03 02:47:25;;;;;;;1.55;1.13;;;;;;;22.22;52.43;101530.19;5096878;28;20020;-73
2021/08/03 02:49:52;;;;;;;1.55;0.90;;;;;;;22.17;52.27;101524.09;5115110;28;20466;-72
2021/08/03 02:52:19;;;;;;;1.13;0.80;;;;;;;22.18;52.48;101528.50;5097052;28;20031;-72
2021/08/03 02:54:51;;;;;;;1.42;0.98;;;;;;;22.18;52.76;101529.38;5114742;28;20039;-72
2021/08/03 02:57:18;;;;;;;1.42;0.90;;;;;;;22.17;52.51;101522.34;5114816;28;20377;-73
2021/08/03 02:59:50;;;;;;;2.05;1.30;;;;;;;22.21;52.44;101529.31;5096311;28;20056;-72
2021/08/03 03:02:16;;;;;;;1.05;0.80;;;;;;;22.19;52.67;101520.56;5096458;28;20016;-72
2021/08/03 03:04:52;;;;;;;1.00;0.82;;;;;;;22.21;52.43;101528.44;5114866;28;20083;-73
2021/08/03 03:07:25;;;;;;;1.05;0.88;;;;;;;22.17;52.52;101519.72;5115753;28;20100;-73
2021/08/03 03:09:52;;;;;;;1.40;0.90;;;;;;;22.18;52.42;101524.09;5115441;28;20051;-73
2021/08/03 03:12:18;;;;;;;1.83;1.08;;;;;;;22.17;52.39;101510.94;5096842;28;20069;-73
2021/08/03 03:14:45;;;;;;;1.80;1.08;;;;;;;22.15;52.31;101510.94;5115478;28;20420;-73
2021/08/03 03:17:14;;;;;;;1.55;0.88;;;;;;;22.17;52.39;101513.56;5115050;28;20055;-73
2021/08/03 03:19:42;;;;;;;0.80;0.70;;;;;;;22.15;52.51;101508.31;5096216;28;20020;-73
2021/08/03 03:22:08;;;;;;;1.65;1.20;;;;;;;22.20;52.38;101521.44;5114579;28;20038;-72
2021/08/03 03:24:36;;;;;;;1.20;0.98;;;;;;;22.18;52.42;101510.94;5114454;28;20034;-73
2021/08/03 03:27:04;;;;;;;1.63;1.00;;;;;;;22.20;52.62;101518.81;5096155;28;20046;-73
2021/08/03 03:29:31;;;;;;;1.65;0.82;;;;;;;22.15;52.33;101510.94;5114479;28;20031;-73
2021/08/03 03:31:57;;;;;;;1.13;0.85;;;;;;;22.18;52.41;101521.47;5078664;28;20023;-73
2021/08/03 03:34:25;;;;;;;1.20;1.10;;;;;;;22.17;52.52;101514.44;5095872;28;20469;-73
2021/08/03 03:36:52;;;;;;;1.10;0.82;;;;;;;22.14;52.47;101511.84;5096007;28;20020;-72
2021/08/03 03:39:19;;;;;;;0.88;0.70;;;;;;;22.20;52.47;101521.44;5095979;28;20124;-72
2021/08/03 03:41:50;;;;;;;1.52;0.82;;;;;;;22.12;52.17;101500.44;5096036;28;20035;-72
2021/08/03 03:44:16;;;;;;;1.33;1.00;;;;;;;22.18;52.64;101512.69;5114066;28;20024;-73
2021/08/03 03:47:08;;;;;;;1.05;0.93;;;;;;;22.15;52.55;101503.03;5095671;28;20359;-72
2021/08/03 03:49:37;;;;;;;1.27;0.98;;;;;;;22.16;52.48;101503.91;5095611;28;20091;-73
2021/08/03 03:52:05;;;;;;;1.17;1.00;;;;;;;22.12;52.63;101495.16;5114203;28;20019;-73
2021/08/03 03:54:35;;;;;;;1.00;0.65;;;;;;;22.13;52.50;101498.66;5114074;28;20378;-72
2021/08/03 03:57:03;;;;;;;1.33;0.90;;;;;;;22.17;52.42;101503.91;5114081;28;20023;-72
2021/08/03 03:59:29;;;;;;;1.17;0.85;;;;;;;22.16;52.54;101499.53;5113978;28;20059;-72
2021/08/03 04:02:01;;;;;;;1.52;0.93;;;;;;;22.17;52.34;101505.66;5095678;28;20473;-73
2021/08/03 04:04:29;;;;;;;1.15;0.90;;;;;;;22.15;52.61;101494.25;5095616;28;20020;-72
2021/08/03 04:06:54;;;;;;;1.55;0.85;;;;;;;22.14;52.50;101493.38;5113785;28;20492;-73
2021/08/03 04:09:22;;;;;;;1.15;0.85;;;;;;;22.16;52.47;101499.53;5113708;28;20059;-72
2021/08/03 04:11:49;;;;;;;1.40;1.00;;;;;;;22.12;52.54;101494.28;5113968;28;20020;-73
2021/08/03 04:14:19;;;;;;;1.25;0.80;;;;;;;22.09;52.48;101488.16;5113742;28;20024;-72
2021/08/03 04:16:44;;;;;;;1.75;0.90;;;;;;;22.09;52.41;101484.66;5113945;28;20024;-73
2021/08/03 04:19:09;;;;;;;1.55;1.05;;;;;;;22.15;52.40;101497.78;5095516;28;20496;-73
2021/08/03 04:21:35;;;;;;;0.93;0.80;;;;;;;22.15;52.23;101489.88;5095527;28;20122;-72
2021/08/03 04:24:00;;;;;;;1.33;0.82;;;;;;;22.12;52.30;101484.63;5078761;28;20526;-73
2021/08/03 04:26:25;;;;;;;1.33;0.95;;;;;;;22.17;52.42;101497.75;5095623;28;20089;-72
2021/08/03 04:28:51;;;;;;;1.45;1.00;;;;;;;22.09;52.46;101493.44;5113665;28;20152;-72
2021/08/03 04:31:16;;;;;;;1.17;0.85;;;;;;;22.13;52.40;101490.78;5078479;28;20027;-73
2021/08/03 04:33:41;;;;;;;1.55;0.93;;;;;;;22.12;52.48;101492.53;5078392;28;20038;-72
2021/08/03 04:36:07;;;;;;;1.45;0.90;;;;;;;22.15;52.56;101505.69;5113728;28;20115;-72
2021/08/03 04:38:32;;;;;;;1.25;0.98;;;;;;;22.15;52.41;101503.03;5095347;28;20058;-72
2021/08/03 04:40:58;;;;;;;2.05;1.33;;;;;;;22.16;52.59;101499.53;5113599;28;20089;-74
2021/08/03 04:43:23;;;;;;;1.50;1.13;;;;;;;22.12;52.63;101487.25;5115429;28;20023;-74
2021/08/03 04:45:48;;;;;;;1.35;0.90;;;;;;;22.12;52.42;101489.03;5082275;28;20027;-74
2021/08/03 04:48:14;;;;;;;1.85;1.48;;;;;;;22.15;52.53;101500.41;5082241;28;20027;-74
2021/08/03 04:50:40;;;;;;;1.50;0.80;;;;;;;22.15;52.43;101489.00;5117481;28;20035;-74
2021/08/03 04:53:05;;;;;;;1.23;0.90;;;;;;;22.14;52.32;101492.53;5099024;28;20072;-74
2021/08/03 04:55:31;;;;;;;1.15;0.77;;;;;;;22.14;52.42;101489.88;5098907;28;20023;-74
2021/08/03 04:57:56;;;;;;;1.20;0.93;;;;;;;22.16;52.37;101494.25;5081875;28;20031;-74
2021/08/03 05:00:22;;;;;;;1.00;0.63;;;;;;;22.16;52.35;101491.63;5098692;28;20028;-73
2021/08/03 05:02:47;;;;;;;0.85;0.73;;;;;;;22.17;52.50;101484.59;5115877;28;20110;-72
2021/08/03 05:05:13;;;;;;;1.30;0.80;;;;;;;22.14;52.40;101493.38;5098791;28;20381;-72
2021/08/03 05:07:39;;;;;;;1.02;0.70;;;;;;;22.11;52.31;101488.16;5081901;28;20059;-72
2021/08/03 05:10:10;;;;;;;0.98;0.65;;;;;;;22.14;52.05;101488.13;5116987;28;20050;-72
2021/08/03 05:12:39;;;;;;;0.90;0.70;;;;;;;22.14;52.35;101489.88;5116914;28;20034;-72
2021/08/03 05:15:06;;;;;;;1.38;0.93;;;;;;;22.15;52.25;101489.88;5098698;28;20042;-73
2021/08/03 05:17:33;;;;;;;1.10;0.95;;;;;;;22.17;52.16;101495.13;5098569;28;20016;-72
2021/08/03 05:19:59;;;;;;;1.55;1.05;;;;;;;22.18;52.22;101496.88;5081840;28;20389;-73
2021/08/03 05:22:25;;;;;;;1.60;1.10;;;;;;;22.16;52.24;101494.25;5116794;28;20133;-72
2021/08/03 05:24:51;;;;;;;1.00;0.70;;;;;;;22.20;52.28;101490.69;5098609;28;20043;-72
2021/08/03 05:27:17;;;;;;;1.70;1.00;;;;;;;22.20;52.25;101492.47;5116667;28;20100;-72
2021/08/03 05:29:42;;;;;;;0.90;0.68;;;;;;;22.18;52.32;101484.59;5116535;28;20031;-72
2021/08/03 05:32:08;;;;;;;1.55;0.80;;;;;;;22.18;52.36;101487.22;5081401;28;20030;-73
2021/08/03 05:34:34;;;;;;;1.05;0.90;;;;;;;22.21;52.22;101496.81;5081289;28;20288;-72
2021/08/03 05:37:02;;;;;;;1.70;0.80;;;;;;;22.23;52.17;101488.03;5098407;28;20042;-73
2021/08/03 05:39:28;;;;;;;2.03;1.00;;;;;;;22.21;52.02;101486.28;5116557;28;20032;-72
2021/08/03 05:41:53;;;;;;;1.30;0.90;;;;;;;22.26;52.14;101488.00;5116449;28;20024;-72
2021/08/03 05:44:19;;;;;;;1.00;0.77;;;;;;;22.20;52.05;101474.88;5116271;28;20077;-73
2021/08/03 05:46:44;;;;;;;1.23;0.90;;;;;;;22.29;51.97;101487.09;5081627;28;20053;-72
2021/08/03 05:49:10;;;;;;;0.85;0.73;;;;;;;22.34;51.91;101490.53;5097821;28;20102;-73
2021/08/03 05:51:35;;;;;;;1.38;0.90;;;;;;;22.37;52.03;101491.38;5097864;28;20080;-73
2021/08/03 05:54:00;;;;;;;1.42;0.95;;;;;;;22.41;51.78;101495.75;5097618;28;20038;-73
2021/08/03 05:56:26;;;;;;;1.05;0.70;;;;;;;22.44;51.45;101490.44;5116212;28;20078;-72
2021/08/03 05:58:51;;;;;;;1.10;1.00;;;;;;;22.51;51.52;101488.59;5080744;28;20058;-72
2021/08/03 06:01:16;;;;;;;1.02;0.80;;;;;;;22.56;51.59;101488.56;5097793;28;20032;-72
2021/08/03 06:03:42;;;;;;;0.63;0.63;;;;;;;22.58;51.74;101492.94;5080678;28;20035;-72
2021/08/03 06:06:08;;;;;;;1.10;0.70;;;;;;;22.63;51.29;101490.22;5115954;28;20034;-72
2021/08/03 06:08:35;;;;;;;0.98;0.77;;;;;;;22.60;51.42;101474.44;5115895;28;20156;-72
2021/08/03 06:11:02;;;;;;;0.63;0.63;;;;;;;22.70;51.21;101492.78;5080664;28;20393;-73
2021/08/03 06:13:29;;;;;;;1.15;0.73;;;;;;;22.72;51.24;101487.50;5097527;28;20082;-73
2021/08/03 06:15:59;;;;;;;1.02;0.70;;;;;;;22.77;51.08;101488.31;5098841;28;20036;-73
2021/08/03 06:18:45;;;;;;;0.95;0.73;;;;;;;22.77;50.97;101483.03;5099232;28;20096;-72
2021/08/03 06:21:15;;;;;;;1.30;0.80;;;;;;;22.79;51.04;101484.78;5100450;28;20027;-74
2021/08/03 06:23:46;;;;;;;1.02;0.80;;;;;;;22.78;50.92;101475.13;5116844;28;20024;-74
2021/08/03 06:26:12;;;;;;;1.20;0.85;;;;;;;22.85;50.92;101483.81;5082318;28;20112;-74
2021/08/03 06:28:38;;;;;;;1.45;0.90;;;;;;;22.88;51.01;101482.91;5117462;28;20035;-74
2021/08/03 06:31:04;;;;;;;1.13;1.02;;;;;;;22.87;50.96;101489.94;5097964;28;20016;-74
2021/08/03 06:33:30;;;;;;;1.10;0.70;;;;;;;22.90;51.04;101479.34;5097455;28;20050;-74
2021/08/03 06:35:55;;;;;;;1.05;0.80;;;;;;;22.94;50.90;101489.00;5097987;28;20035;-74
2021/08/03 06:38:21;;;;;;;0.60;0.55;;;;;;;22.90;50.98;101483.75;5097810;28;20049;-74
2021/08/03 06:41:01;;;;;;;1.27;0.80;;;;;;;22.98;50.85;101492.47;5097518;28;20097;-74
2021/08/03 06:43:29;;;;;;;0.98;0.75;;;;;;;23.02;50.94;101484.47;5115458;28;20023;-74
2021/08/03 06:46:08;;;;;;;1.00;0.70;;;;;;;22.92;50.81;101477.56;5116430;28;20023;-74
2021/08/03 06:48:51;;;;;;;1.25;0.90;;;;;;;22.89;50.92;101482.88;5118176;28;20059;-74
2021/08/03 06:51:20;;;;;;;1.03;0.90;;;;;;;22.82;50.99;101464.53;5102054;28;20094;-73
2021/08/03 06:53:49;;;;;;;1.27;0.73;;;;;;;22.82;50.94;101483.00;5085840;28;20262;-74
2021/08/03 06:56:24;;;;;;;1.33;0.82;;;;;;;22.79;51.20;101471.59;5103049;28;20031;-73
2021/08/03 06:59:04;;;;;;;1.00;0.77;;;;;;;22.98;50.77;101482.75;5119365;28;20062;-74
2021/08/03 07:01:39;;;;;;;1.60;0.77;;;;;;;22.92;50.61;101461.75;5099616;28;20490;-74
2021/08/03 07:04:05;;;;;;;1.13;0.70;;;;;;;23.09;50.67;101483.50;5117680;28;20028;-76
2021/08/03 07:06:38;;;;;;;0.93;0.65;;;;;;;23.07;50.53;101474.75;5114971;28;20027;-75
2021/08/03 07:09:05;;;;;;;1.05;0.80;;;;;;;23.06;50.50;101465.06;5097517;28;20111;-75
2021/08/03 07:11:32;;;;;;;0.85;0.57;;;;;;;23.06;50.63;101480.91;5098097;28;20108;-72
2021/08/03 07:14:07;;;;;;;0.65;0.60;;;;;;;23.13;50.68;101477.28;5098428;28;20054;-73
2021/08/03 07:16:40;;;;;;;1.20;0.80;;;;;;;23.08;50.40;101465.94;5121090;28;20056;-72
2021/08/03 07:19:07;;;;;;;1.08;0.90;;;;;;;23.15;50.51;101475.50;5101838;28;20032;-73
2021/08/03 07:21:33;;;;;;;1.27;0.70;;;;;;;23.10;50.24;101471.19;5102278;28;20047;-73
2021/08/03 07:23:58;;;;;;;1.30;1.00;;;;;;;23.07;50.57;101458.91;5101623;28;20036;-73
2021/08/03 07:26:27;;;;;;;1.15;0.70;;;;;;;23.20;50.34;101474.56;5084385;28;20034;-73
2021/08/03 07:28:52;;;;;;;0.98;0.70;;;;;;;23.12;50.22;101464.97;5118761;28;20461;-73
2021/08/03 07:31:18;;;;;;;0.77;0.50;;;;;;;23.23;50.24;101477.16;5118091;28;20042;-73
2021/08/03 07:33:44;;;;;;;1.00;0.60;;;;;;;23.24;50.17;101479.75;5096710;28;20031;-72
2021/08/03 07:36:13;;;;;;;0.93;0.73;;;;;;;23.25;50.33;101489.41;5098267;28;20035;-72
2021/08/03 07:38:38;;;;;;;1.05;0.70;;;;;;;23.27;50.26;101482.34;5117345;28;20035;-73
2021/08/03 07:41:04;;;;;;;0.82;0.60;;;;;;;23.25;50.29;101476.22;5081766;28;20042;-73
2021/08/03 07:43:35;;;;;;;1.15;0.73;;;;;;;23.25;50.20;101481.50;5099297;28;20110;-73
2021/08/03 07:46:02;;;;;;;1.73;0.82;;;;;;;23.29;50.37;101484.97;5116710;28;20020;-73
2021/08/03 07:48:30;;;;;;;2.95;1.02;;;;;;;23.25;50.21;101481.50;5097433;28;20043;-72
2021/08/03 07:51:07;;;;;;;1.33;0.75;;;;;;;23.31;49.98;101485.81;5081073;28;20063;-73
2021/08/03 07:53:34;;;;;;;0.82;0.65;;;;;;;23.29;50.20;101485.84;5098344;28;20093;-72
2021/08/03 07:56:02;;;;;;;0.82;0.73;;;;;;;23.30;50.17;101486.72;5098022;28;20501;-73
2021/08/03 07:58:27;;;;;;;0.52;0.50;;;;;;;23.30;50.06;101482.31;5098118;28;20413;-72
2021/08/03 08:00:53;;;;;;;0.80;0.50;;;;;;;23.33;49.90;101490.19;5079086;28;20042;-73
2021/08/03 08:03:18;;;;;;;1.30;0.75;;;;;;;23.17;50.28;101484.25;5113983;28;20051;-73
2021/08/03 08:05:43;;;;;;;1.23;0.68;;;;;;;23.23;50.38;101485.94;5078971;28;20449;-73
2021/08/03 08:08:09;;;;;;;1.15;0.70;;;;;;;23.25;50.09;101481.50;5115789;28;20038;-73
2021/08/03 08:10:37;;;;;;;1.15;0.93;;;;;;;23.22;50.16;101473.66;5080521;28;20366;-72
2021/08/03 08:13:05;;;;;;;0.85;0.70;;;;;;;23.29;50.22;101488.47;5097462;28;20035;-73
2021/08/03 08:15:33;;;;;;;0.77;0.50;;;;;;;23.23;50.19;101474.53;5097423;28;20032;-73
2021/08/03 08:18:05;;;;;;;0.57;0.55;;;;;;;23.27;50.33;101476.19;5101059;28;20053;-73
2021/08/03 08:20:31;;;;;;;0.73;0.50;;;;;;;23.26;49.98;101477.09;5120693;28;20106;-73
2021/08/03 08:22:56;;;;;;;0.60;0.60;;;;;;;23.24;50.02;101463.06;5120182;28;20019;-72
2021/08/03 08:25:22;;;;;;;1.27;0.90;;;;;;;23.30;49.70;101476.16;5101830;28;20028;-72
2021/08/03 08:27:47;;;;;;;0.88;0.60;;;;;;;23.30;49.94;101474.41;5102052;28;20027;-72
2021/08/03 08:30:15;;;;;;;0.82;0.50;;;;;;;23.31;50.14;101472.63;5101313;28;20031;-73
2021/08/03 08:32:42;;;;;;;0.45;0.45;;;;;;;23.30;50.14;101465.59;5085023;28;20035;-73
2021/08/03 08:35:08;;;;;;;0.68;0.68;;;;;;;23.28;50.00;101473.53;5101805;28;20024;-72
2021/08/03 08:37:33;;;;;;;0.73;0.70;;;;;;;23.25;50.10;101465.66;5101500;28;20051;-73
2021/08/03 08:40:00;;;;;;;0.47;0.47;;;;;;;23.31;50.12;101470.88;5117667;28;20031;-72
2021/08/03 08:42:26;;;;;;;1.15;0.65;;;;;;;23.30;49.95;101468.25;5117504;28;20023;-72
2021/08/03 08:44:52;;;;;;;0.73;0.60;;;;;;;23.19;50.21;101470.19;5117496;28;20024;-73
2021/08/03 08:47:18;;;;;;;1.10;0.70;;;;;;;23.12;50.34;101467.59;5099150;28;20089;-72
2021/08/03 08:49:45;;;;;;;0.60;0.50;;;;;;;23.05;50.61;101473.88;5117312;28;20026;-73
2021/08/03 08:52:13;;;;;;;1.02;0.57;;;;;;;23.05;50.49;101473.00;5099287;28;20427;-72
2021/08/03 08:54:38;;;;;;;0.60;0.50;;;;;;;23.01;50.75;101468.66;5098871;28;20114;-73
2021/08/03 08:57:04;;;;;;;0.95;0.85;;;;;;;23.00;50.68;101472.19;5082211;28;20118;-72
2021/08/03 08:59:31;;;;;;;0.75;0.57;;;;;;;22.96;50.64;101470.50;5116940;28;20614;-73
2021/08/03 09:01:56;;;;;;;0.90;0.60;;;;;;;22.91;50.64;101465.28;5099450;28;20028;-73
2021/08/03 09:04:24;;;;;;;1.13;0.50;;;;;;;22.89;50.63;101461.78;5081996;28;20120;-72
2021/08/03 09:07:06;;;;;;;0.95;0.70;;;;;;;22.90;50.80;101471.44;5098733;28;20386;-73
2021/08/03 09:09:42;;;;;;;1.13;0.75;;;;;;;22.89;50.92;101474.09;5116786;28;20032;-72
2021/08/03 09:12:08;;;;;;;1.15;0.60;;;;;;;22.84;50.75;101473.31;5098578;28;20019;-72
2021/08/03 09:14:35;;;;;;;0.82;0.68;;;;;;;22.82;50.75;101473.31;5098467;28;20020;-72
2021/08/03 09:17:01;;;;;;;0.52;0.52;;;;;;;22.83;50.78;101477.72;5098995;28;20072;-73
2021/08/03 09:19:31;;;;;;;1.17;0.77;;;;;;;22.79;50.81;101476.88;5098407;28;20385;-72
2021/08/03 09:22:23;;;;;;;0.82;0.70;;;;;;;22.79;50.81;101487.41;5098503;28;20020;-72
2021/08/03 09:25:08;;;;;;;0.80;0.60;;;;;;;22.76;50.89;101486.56;5116968;28;20529;-73
2021/08/03 09:27:48;;;;;;;0.93;0.73;;;;;;;22.73;50.79;101482.16;5116933;28;20070;-72
2021/08/03 09:30:19;;;;;;;0.85;0.60;;;;;;;22.76;50.78;101489.22;5116277;28;20504;-73
2021/08/03 09:32:47;;;;;;;1.13;0.93;;;;;;;22.73;50.97;101483.94;5099136;28;20035;-73
2021/08/03 09:35:18;;;;;;;1.23;0.80;;;;;;;22.71;50.90;101478.72;5099597;28;20035;-72
2021/08/03 09:37:45;;;;;;;0.55;0.52;;;;;;;22.69;50.83;101474.34;5099088;28;20045;-74
2021/08/03 09:40:16;;;;;;;1.15;0.60;;;;;;;22.70;50.85;101487.50;5099262;28;20023;-73
2021/08/03 09:42:42;;;;;;;1.00;0.73;;;;;;;22.67;50.83;101482.25;5098974;28;20550;-73
2021/08/03 09:45:08;;;;;;;0.70;0.60;;;;;;;22.65;50.94;101480.53;5099699;28;20031;-73
2021/08/03 09:47:36;;;;;;;1.40;0.80;;;;;;;22.70;50.81;101481.34;5118550;28;20118;-72
2021/08/03 09:50:06;;;;;;;0.90;0.60;;;;;;;22.68;50.55;101483.13;5127357;28;20028;-72
2021/08/03 09:52:35;;;;;;;1.85;0.70;;;;;;;22.63;50.83;101469.13;5098893;28;20016;-72
2021/08/03 09:55:11;;;;;;;0.75;0.50;;;;;;;22.67;50.62;101478.75;5116108;28;20107;-72
2021/08/03 09:57:37;;;;;;;1.55;0.85;;;;;;;22.67;50.72;101474.34;5116095;28;20039;-72
2021/08/03 10:00:22;;;;;;;0.65;0.55;;;;;;;22.62;50.75;101465.63;5076906;28;20056;-72
2021/08/03 10:02:48;;;;;;;1.13;0.80;;;;;;;22.66;50.89;101482.28;5094876;28;20104;-72
2021/08/03 10:05:14;;;;;;;0.57;0.57;;;;;;;22.65;50.64;101473.50;5094602;28;20484;-72
2021/08/03 10:07:39;;;;;;;0.65;0.50;;;;;;;22.62;50.81;101472.66;5095517;28;20020;-72
2021/08/03 10:10:07;;;;;;;1.15;0.77;;;;;;;22.61;50.82;101474.41;5095427;28;20074;-72
2021/08/03 10:12:32;;;;;;;1.58;1.00;;;;;;;22.63;50.72;101479.66;5110972;28;20073;-72
2021/08/03 10:14:58;;;;;;;0.85;0.55;;;;;;;22.55;50.97;101471.00;5094051;28;20056;-72
2021/08/03 10:17:23;;;;;;;1.27;0.68;;;;;;;22.58;50.75;101484.16;5094003;28;20526;-72
2021/08/03 10:19:49;;;;;;;0.82;0.55;;;;;;;22.59;50.81;101470.91;5077223;28;20032;-74
2021/08/03 10:22:22;;;;;;;1.00;0.60;;;;;;;22.59;50.99;101481.47;5077221;28;20079;-74
2021/08/03 10:25:02;;;;;;;0.93;0.57;;;;;;;22.57;50.95;101477.13;5095450;28;20024;-74
2021/08/03 10:27:49;;;;;;;1.23;0.80;;;;;;;22.57;50.93;101479.75;5111024;28;20382;-74
2021/08/03 10:30:29;;;;;;;1.48;0.70;;;;;;;22.57;50.74;101483.28;5095293;28;20036;-74
2021/08/03 10:33:00;;;;;;;0.85;0.73;;;;;;;22.56;50.76;101486.78;5095200;28;20035;-74
2021/08/03 10:35:42;;;;;;;0.80;0.57;;;;;;;22.57;50.91;101491.19;5094013;28;20115;-74
2021/08/03 10:38:12;;;;;;;0.57;0.57;;;;;;;22.58;50.80;101492.06;5095290;28;20129;-74
2021/08/03 10:40:43;;;;;;;1.75;0.70;;;;;;;22.57;50.82;101485.03;5093091;28;20030;-74
2021/08/03 10:43:51;;;;;;;1.17;0.82;;;;;;;22.57;50.71;101488.53;5094074;28;20028;-75
2021/08/03 10:46:16;;;;;;;0.98;0.80;;;;;;;22.56;50.70;101489.44;5021170;28;20456;-75
2021/08/03 10:48:43;;;;;;;1.08;0.63;;;;;;;22.53;50.89;101481.56;5093753;28;20063;-75
2021/08/03 10:51:18;;;;;;;1.27;0.90;;;;;;;22.55;50.76;101479.78;5093662;28;20032;-75
2021/08/03 10:54:04;;;;;;;1.10;0.70;;;;;;;22.54;50.76;101480.66;5093404;28;20379;-75
2021/08/03 10:56:52;;;;;;;1.00;0.60;;;;;;;22.55;50.76;101478.91;5094907;28;20024;-74
2021/08/03 10:59:40;;;;;;;1.42;0.60;;;;;;;22.56;50.85;101478.00;5112385;28;20076;-74
2021/08/03 11:02:29;;;;;;;0.73;0.63;;;;;;;22.52;50.89;101469.25;5096791;28;20107;-74
2021/08/03 11:04:59;;;;;;;1.70;0.80;;;;;;;22.53;50.80;101476.28;5114842;28;20099;-74
2021/08/03 11:07:24;;;;;;;2.30;0.75;;;;;;;22.55;50.98;101478.91;5114775;28;20031;-74
2021/08/03 11:09:53;;;;;;;0.60;0.50;;;;;;;22.53;50.81;101480.69;5096939;28;20030;-74
2021/08/03 11:12:40;;;;;;;0.60;0.50;;;;;;;22.52;51.02;101478.94;5080303;28;20051;-74
2021/08/03 11:15:24;;;;;;;0.95;0.63;;;;;;;22.54;50.90;101474.53;5114664;28;20034;-74
2021/08/03 11:17:52;;;;;;;;;;;;;;;22.54;50.92;101467.47;5096977;28;20058;-75
2021/08/03 11:20:36;;;;;;;1.08;0.70;;;;;;;22.54;50.82;101470.13;5114682;28;19908;-74
2021/08/03 11:23:02;;;;;;;;;;;;;;;22.54;51.03;101474.53;5097525;28;20165;-74
2021/08/03 11:25:28;;;;;;;1.25;0.73;;;;;;;22.54;50.82;101472.75;5114814;28;19923;-74
2021/08/03 11:28:08;;;;;;;0.95;0.65;;;;;;;22.51;51.03;101462.25;5115332;28;20028;-74
2021/08/03 11:30:34;;;;;;;0.98;0.68;;;;;;;22.53;50.75;101470.13;5097294;28;20041;-74
2021/08/03 11:32:59;;;;;;;0.80;0.80;;;;;;;22.54;50.88;101469.25;5097129;28;20023;-74
2021/08/03 11:35:28;;;;;;;1.05;0.65;;;;;;;22.54;50.99;101472.75;5115048;28;20027;-74
2021/08/03 11:37:54;;;;;;;1.83;0.82;;;;;;;22.51;50.91;101470.16;5080266;28;20122;-74